createdAt,value
2019-03-12T00:01:23.933Z,25.40
2019-03-12T00:03:52.550Z,25.25
2019-03-12T00:06:20.833Z,25.52
2019-03-12T00:08:49.534Z,26.27
2019-03-12T00:11:17.586Z,26.05
2019-03-12T00:13:45.860Z,25.80
2019-03-12T00:16:14.557Z,24.95
2019-03-12T00:18:42.829Z,23.87
2019-03-12T00:21:11.076Z,24.25
2019-03-12T00:23:39.413Z,23.60
2019-03-12T00:26:08.069Z,24.60
2019-03-12T00:28:36.752Z,23.32
2019-03-12T00:31:04.711Z,22.85
2019-03-12T00:33:32.693Z,23.22
2019-03-12T00:36:01.543Z,23.52
2019-03-12T00:38:29.781Z,23.40
2019-03-12T00:40:58.038Z,23.27
2019-03-12T00:43:26.728Z,23.17
2019-03-12T00:45:54.685Z,23.32
2019-03-12T00:48:23.273Z,22.22
2019-03-12T00:50:51.555Z,21.33
2019-03-12T00:53:19.928Z,22.13
2019-03-12T00:55:48.296Z,21.48
2019-03-12T00:58:16.274Z,20.68
2019-03-12T01:00:44.875Z,20.90
2019-03-12T01:03:12.853Z,19.77
2019-03-12T01:05:41.108Z,19.05
2019-03-12T01:08:09.500Z,18.05
2019-03-12T01:10:37.845Z,19.42
2019-03-12T01:13:14.149Z,17.90
2019-03-12T01:15:42.401Z,18.10
2019-03-12T01:18:13.665Z,18.02
2019-03-12T01:20:41.014Z,18.12
2019-03-12T01:23:09.810Z,17.77
2019-03-12T01:25:38.236Z,17.27
2019-03-12T01:28:06.561Z,16.62
2019-03-12T01:30:34.526Z,16.77
2019-03-12T01:33:03.012Z,16.80
2019-03-12T01:35:30.957Z,16.17
2019-03-12T01:37:59.735Z,15.78
2019-03-12T01:40:28.183Z,15.20
2019-03-12T01:42:56.156Z,14.90
2019-03-12T01:45:24.183Z,14.95
2019-03-12T01:47:52.757Z,15.00
2019-03-12T01:50:21.016Z,13.53
2019-03-12T01:52:48.993Z,13.90
2019-03-12T01:55:16.966Z,14.20
2019-03-12T01:57:44.903Z,14.30
2019-03-12T02:00:13.709Z,14.38
2019-03-12T02:02:42.077Z,14.03
2019-03-12T02:05:10.398Z,12.60
2019-03-12T02:07:38.686Z,13.05
2019-03-12T02:10:07.144Z,13.13
2019-03-12T02:12:35.450Z,12.50
2019-03-12T02:15:03.458Z,11.97
2019-03-12T02:17:31.998Z,11.25
2019-03-12T02:19:59.962Z,11.43
2019-03-12T02:22:27.961Z,11.20
2019-03-12T02:24:56.217Z,11.03
2019-03-12T02:27:24.152Z,10.80
2019-03-12T02:29:53.468Z,11.05
2019-03-12T02:32:21.799Z,11.50
2019-03-12T02:34:49.742Z,11.80
2019-03-12T02:37:17.729Z,11.50
2019-03-12T02:39:46.344Z,12.25
2019-03-12T02:42:14.661Z,12.18
2019-03-12T02:44:42.922Z,12.50
2019-03-12T02:47:11.254Z,12.15
2019-03-12T02:49:39.493Z,13.50
2019-03-12T02:52:07.490Z,13.90
2019-03-12T02:54:35.738Z,16.10
2019-03-12T02:57:04.010Z,16.80
2019-03-12T02:59:32.087Z,22.95
2019-03-12T03:02:00.054Z,22.52
2019-03-12T03:04:28.034Z,34.98
2019-03-12T03:07:21.820Z,36.95
2019-03-12T03:09:50.390Z,48.28
2019-03-12T03:12:18.658Z,30.72
2019-03-12T03:14:46.942Z,48.83
2019-03-12T03:17:16.649Z,58.87
2019-03-12T03:19:44.908Z,43.55
2019-03-12T03:22:13.515Z,42.60
2019-03-12T03:24:41.493Z,46.83
2019-03-12T03:27:09.483Z,41.80
2019-03-12T03:29:37.464Z,47.63
2019-03-12T03:32:05.812Z,55.63
2019-03-12T03:34:34.513Z,68.25
2019-03-12T03:37:03.079Z,60.37
2019-03-12T03:39:31.757Z,59.00
2019-03-12T03:42:00.026Z,55.70
2019-03-12T03:44:28.414Z,50.88
2019-03-12T03:46:56.413Z,48.65
2019-03-12T03:49:24.642Z,50.25
2019-03-12T03:51:53.239Z,54.25
2019-03-12T03:54:21.524Z,44.35
2019-03-12T03:56:50.107Z,59.20
2019-03-12T03:59:18.647Z,45.83
2019-03-12T04:01:46.717Z,54.30
2019-03-12T04:04:14.682Z,49.25
2019-03-12T04:06:42.848Z,44.33
2019-03-12T04:09:11.408Z,55.08
2019-03-12T04:11:39.315Z,52.40
2019-03-12T04:14:07.640Z,48.92
2019-03-12T04:16:35.613Z,43.90
2019-03-12T04:19:03.657Z,42.27
2019-03-12T04:21:32.110Z,46.85
2019-03-12T04:24:00.340Z,43.65
2019-03-12T04:26:28.922Z,41.10
2019-03-12T04:28:57.307Z,33.83
2019-03-12T04:31:25.250Z,44.10
2019-03-12T04:34:18.838Z,37.85
2019-03-12T04:36:47.915Z,37.33
2019-03-12T04:39:15.912Z,44.88
2019-03-12T04:41:43.874Z,40.65
2019-03-12T04:44:12.456Z,43.20
2019-03-12T04:46:40.693Z,37.50
2019-03-12T04:49:08.937Z,48.20
2019-03-12T04:51:37.184Z,39.73
2019-03-12T04:54:05.135Z,33.48
2019-03-12T04:56:33.121Z,38.02
2019-03-12T04:59:01.718Z,29.70
2019-03-12T05:01:29.693Z,29.10
2019-03-12T05:03:58.017Z,28.52
2019-03-12T05:06:26.046Z,32.25
2019-03-12T05:08:54.034Z,29.25
2019-03-12T05:11:22.024Z,33.95
2019-03-12T05:14:09.385Z,52.60
2019-03-12T05:16:37.422Z,41.05
2019-03-12T05:19:05.726Z,38.90
2019-03-12T05:21:34.021Z,28.12
2019-03-12T05:24:02.005Z,31.07
2019-03-12T05:26:30.017Z,31.15
2019-03-12T05:28:58.505Z,30.12
2019-03-12T05:31:26.821Z,30.30
2019-03-12T05:33:54.773Z,31.70
2019-03-12T05:36:22.737Z,29.63
2019-03-12T05:38:51.040Z,30.60
2019-03-12T05:41:19.625Z,31.20
2019-03-12T05:43:47.897Z,33.65
2019-03-12T05:46:16.692Z,32.98
2019-03-12T05:48:44.961Z,33.02
2019-03-12T05:51:13.328Z,34.18
2019-03-12T05:53:46.428Z,31.82
2019-03-12T05:56:14.868Z,29.32
2019-03-12T05:58:42.817Z,30.27
2019-03-12T06:01:11.112Z,29.92
2019-03-12T06:03:39.355Z,29.40
2019-03-12T06:06:07.410Z,30.52
2019-03-12T06:08:35.448Z,30.23
2019-03-12T06:11:03.514Z,31.03
2019-03-12T06:13:31.452Z,28.97
2019-03-12T06:15:59.781Z,29.37
2019-03-12T06:18:27.749Z,30.43
2019-03-12T06:20:56.020Z,28.77
2019-03-12T06:23:23.990Z,28.60
2019-03-12T06:25:51.920Z,30.80
2019-03-12T06:28:19.924Z,31.45
2019-03-12T06:31:12.751Z,30.27
2019-03-12T06:34:14.855Z,30.15
2019-03-12T06:37:13.949Z,30.65
2019-03-12T06:39:50.420Z,29.87
2019-03-12T06:42:40.532Z,32.35
2019-03-12T06:45:18.741Z,29.90
2019-03-12T06:48:06.473Z,28.85
2019-03-12T06:50:49.912Z,28.70
2019-03-12T06:53:48.996Z,28.38
2019-03-12T06:56:25.369Z,28.30
2019-03-12T06:59:12.701Z,27.67
2019-03-12T07:02:15.298Z,26.07
2019-03-12T07:04:51.720Z,25.72
2019-03-12T07:07:41.657Z,24.97
2019-03-12T07:10:20.605Z,24.35
2019-03-12T07:12:59.066Z,24.37
2019-03-12T07:15:35.351Z,23.22
2019-03-12T07:18:31.579Z,23.05
2019-03-12T07:21:18.898Z,22.95
2019-03-12T07:24:00.086Z,20.90
2019-03-12T07:26:53.752Z,18.70
2019-03-12T07:29:43.869Z,20.07
2019-03-12T07:32:34.156Z,19.42
2019-03-12T07:35:12.815Z,18.37
2019-03-12T07:38:12.137Z,17.30
2019-03-12T07:40:53.835Z,18.05
2019-03-12T07:43:36.569Z,18.33
2019-03-12T07:46:18.562Z,15.65
2019-03-12T07:49:04.558Z,15.30
2019-03-12T07:51:57.684Z,13.70
2019-03-12T07:54:53.851Z,12.60
2019-03-12T07:57:44.767Z,12.80
2019-03-12T08:00:21.110Z,11.90
2019-03-12T08:03:26.576Z,11.75
2019-03-12T08:06:10.425Z,12.40
2019-03-12T08:08:56.322Z,10.93
2019-03-12T08:11:29.741Z,11.40
2019-03-12T08:14:08.760Z,10.40
2019-03-12T08:17:05.467Z,11.20
2019-03-12T08:19:52.460Z,10.72
2019-03-12T08:22:39.810Z,11.30
2019-03-12T08:25:35.937Z,9.20
2019-03-12T08:28:25.933Z,8.13
2019-03-12T08:31:09.559Z,8.28
2019-03-12T08:33:53.616Z,8.40
2019-03-12T08:36:34.954Z,8.43
2019-03-12T08:39:34.293Z,7.78
2019-03-12T08:42:11.909Z,7.75
2019-03-12T08:45:00.948Z,7.03
2019-03-12T08:47:50.785Z,6.37
2019-03-12T08:50:41.436Z,6.20
2019-03-12T08:53:31.614Z,5.25
2019-03-12T08:56:07.968Z,5.90
2019-03-12T08:59:05.261Z,4.22
2019-03-12T09:02:02.574Z,4.50
2019-03-12T09:04:48.736Z,4.50
2019-03-12T09:07:34.445Z,4.40
2019-03-12T09:10:24.789Z,3.90
2019-03-12T09:13:07.123Z,4.40
2019-03-12T09:16:11.857Z,14.70
2019-03-12T09:19:14.574Z,4.35
2019-03-12T09:22:00.002Z,4.00
2019-03-12T09:24:43.208Z,4.70
2019-03-12T09:27:44.013Z,4.50
2019-03-12T09:30:19.514Z,4.20
2019-03-12T09:32:57.208Z,3.70
2019-03-12T09:35:33.869Z,4.03
2019-03-12T09:38:21.197Z,4.28
2019-03-12T09:41:11.696Z,3.92
2019-03-12T09:43:55.023Z,4.00
2019-03-12T09:46:47.149Z,4.40
2019-03-12T09:49:35.200Z,3.80
2019-03-12T09:52:19.557Z,3.60
2019-03-12T09:55:13.842Z,3.90
2019-03-12T09:58:15.962Z,4.15
2019-03-12T10:01:18.329Z,3.70
2019-03-12T10:03:53.628Z,4.20
2019-03-12T10:06:40.138Z,3.65
2019-03-12T10:09:21.842Z,3.98
2019-03-12T10:12:09.574Z,4.28
2019-03-12T10:14:56.613Z,4.50
2019-03-12T10:17:42.309Z,4.10
2019-03-12T10:20:28.359Z,4.12
2019-03-12T10:23:15.444Z,4.33
2019-03-12T10:26:05.890Z,4.35
2019-03-12T10:28:59.355Z,3.97
2019-03-12T10:31:34.853Z,3.98
2019-03-12T10:34:37.082Z,4.10
2019-03-12T10:37:16.791Z,4.00
2019-03-12T10:40:16.920Z,3.98
2019-03-12T10:42:52.323Z,4.25
2019-03-12T10:45:27.222Z,4.25
2019-03-12T10:47:55.619Z,3.98
2019-03-12T10:50:23.723Z,4.28
2019-03-12T10:52:52.116Z,4.00
2019-03-12T10:55:20.165Z,3.92
2019-03-12T10:57:48.218Z,4.55
2019-03-12T11:00:16.399Z,4.83
2019-03-12T11:02:44.859Z,5.50
2019-03-12T11:05:13.851Z,4.58
2019-03-12T11:07:41.864Z,3.95
2019-03-12T11:10:10.705Z,4.25
2019-03-12T11:12:39.135Z,4.05
2019-03-12T11:15:07.784Z,4.15
2019-03-12T11:17:48.448Z,4.08
2019-03-12T11:20:06.062Z,4.10
2019-03-12T11:22:34.444Z,4.03
2019-03-12T11:25:02.678Z,4.10
2019-03-12T11:27:31.331Z,4.10
2019-03-12T11:29:59.795Z,4.50
2019-03-12T11:32:27.835Z,4.05
2019-03-12T11:34:55.868Z,4.20
2019-03-12T11:37:23.976Z,4.40
2019-03-12T11:39:52.012Z,4.55
2019-03-12T11:42:20.072Z,4.20
2019-03-12T11:44:48.421Z,5.20
2019-03-12T11:47:16.505Z,4.60
2019-03-12T11:49:44.879Z,4.95
2019-03-12T11:54:56.172Z,5.10
2019-03-12T11:57:24.242Z,4.77
2019-03-12T11:59:52.237Z,5.80
2019-03-12T12:02:20.420Z,4.80
2019-03-12T12:04:48.805Z,4.57
2019-03-12T12:07:16.990Z,5.10
2019-03-12T12:09:45.672Z,4.40
2019-03-12T12:12:14.019Z,4.55
2019-03-12T12:14:42.165Z,4.50
2019-03-12T12:17:10.877Z,4.55
2019-03-12T12:19:38.944Z,4.50
2019-03-12T12:22:07.637Z,4.70
2019-03-12T12:24:35.935Z,4.25
2019-03-12T12:27:04.291Z,4.35
2019-03-12T12:29:32.365Z,4.80
2019-03-12T12:32:00.741Z,4.50
2019-03-12T12:34:28.796Z,4.50
2019-03-12T12:36:56.877Z,4.00
2019-03-12T12:39:25.169Z,3.80
2019-03-12T12:41:53.643Z,4.40
2019-03-12T12:44:22.008Z,4.25
2019-03-12T12:46:50.069Z,3.95
2019-03-12T12:49:18.138Z,3.90
2019-03-12T12:51:46.182Z,4.10
2019-03-12T12:54:14.252Z,3.85
2019-03-12T12:56:42.583Z,4.00
2019-03-12T12:59:11.293Z,4.30
2019-03-12T13:01:39.670Z,4.20
2019-03-12T13:04:07.711Z,4.10
2019-03-12T13:06:36.125Z,3.90
2019-03-12T13:09:05.820Z,3.60
2019-03-12T13:11:34.205Z,3.77
2019-03-12T13:14:04.281Z,2.87
2019-03-12T13:16:32.588Z,3.37
2019-03-12T13:19:00.821Z,2.72
2019-03-12T13:21:28.834Z,3.30
2019-03-12T13:23:56.908Z,3.00
2019-03-12T13:26:25.106Z,3.20
2019-03-12T13:28:53.468Z,2.70
2019-03-12T13:31:21.901Z,2.98
2019-03-12T13:33:50.169Z,2.98
2019-03-12T13:36:18.999Z,3.80
2019-03-12T13:38:48.563Z,4.00
2019-03-12T13:41:17.040Z,3.60
2019-03-12T13:43:45.931Z,3.80
2019-03-12T13:46:14.817Z,3.20
2019-03-12T13:49:42.067Z,3.30
2019-03-12T13:52:10.156Z,3.37
2019-03-12T13:54:38.570Z,3.22
2019-03-12T13:57:07.486Z,3.02
2019-03-12T13:59:35.900Z,3.05
2019-03-12T14:02:04.074Z,5.10
2019-03-12T14:04:32.240Z,2.95
2019-03-12T14:07:00.300Z,2.80
2019-03-12T14:09:28.576Z,2.90
2019-03-12T14:11:59.100Z,3.37
2019-03-12T14:14:26.624Z,3.22
2019-03-12T14:16:54.969Z,2.80
2019-03-12T14:19:23.527Z,2.95
2019-03-12T14:21:51.959Z,2.60
2019-03-12T14:24:20.913Z,2.70
2019-03-12T14:26:49.467Z,2.52
2019-03-12T14:29:17.670Z,2.80
2019-03-12T14:31:46.298Z,2.60
2019-03-12T14:34:14.360Z,2.98
2019-03-12T14:36:42.619Z,2.90
2019-03-12T14:39:11.087Z,2.60
2019-03-12T14:41:39.498Z,3.00
2019-03-12T14:44:08.284Z,2.50
2019-03-12T14:46:36.426Z,2.90
2019-03-12T14:49:06.060Z,3.35
2019-03-12T14:51:41.920Z,3.65
2019-03-12T14:54:10.587Z,3.00
2019-03-12T14:56:38.784Z,3.20
2019-03-12T14:59:07.407Z,3.30
2019-03-12T15:01:35.732Z,3.25
2019-03-12T15:04:04.314Z,3.20
2019-03-12T15:06:33.387Z,3.40
2019-03-12T15:09:01.870Z,3.25
2019-03-12T15:11:30.520Z,3.75
2019-03-12T15:13:58.755Z,3.65
2019-03-12T15:16:27.088Z,3.25
2019-03-12T15:18:55.149Z,3.30
2019-03-12T15:21:23.550Z,3.20
2019-03-12T15:23:51.698Z,3.15
2019-03-12T15:26:19.935Z,3.17
2019-03-12T15:28:49.098Z,3.02
2019-03-12T15:31:17.860Z,3.20
2019-03-12T15:33:46.252Z,3.12
2019-03-12T15:36:14.715Z,2.62
2019-03-12T15:38:42.824Z,3.10
2019-03-12T15:41:11.599Z,2.90
2019-03-12T15:43:39.702Z,3.40
2019-03-12T15:46:08.092Z,2.97
2019-03-12T15:48:36.195Z,2.90
2019-03-12T15:51:04.772Z,2.70
2019-03-12T15:53:33.025Z,3.00
2019-03-12T15:56:01.652Z,2.63
2019-03-12T15:58:30.289Z,2.87
2019-03-12T16:00:58.537Z,2.55
2019-03-12T16:03:27.225Z,2.87
2019-03-12T16:05:55.315Z,2.70
2019-03-12T16:08:23.367Z,2.70
2019-03-12T16:10:57.805Z,2.57
2019-03-12T16:13:22.103Z,2.90
2019-03-12T16:15:50.268Z,2.67
2019-03-12T16:18:19.242Z,2.62
2019-03-12T16:20:47.806Z,2.60
2019-03-12T16:23:16.092Z,2.63
2019-03-12T16:25:44.211Z,2.60
2019-03-12T16:28:13.157Z,2.45
2019-03-12T16:30:41.526Z,2.40
2019-03-12T16:33:09.917Z,2.65
2019-03-12T16:35:39.578Z,2.60
2019-03-12T16:38:09.697Z,2.37
2019-03-12T16:40:38.298Z,2.40
2019-03-12T16:43:06.735Z,2.40
2019-03-12T16:45:35.139Z,2.30
2019-03-12T16:48:03.292Z,2.50
2019-03-12T16:50:31.385Z,2.00
2019-03-12T16:52:59.511Z,2.25
2019-03-12T16:55:27.852Z,2.60
2019-03-12T16:57:56.703Z,2.50
2019-03-12T17:00:25.405Z,2.10
2019-03-12T17:02:53.720Z,2.25
2019-03-12T17:05:25.990Z,2.50
2019-03-12T17:07:52.691Z,2.20
2019-03-12T17:10:21.283Z,2.37
2019-03-12T17:12:51.353Z,2.60
2019-03-12T17:15:19.552Z,2.35
2019-03-12T17:17:47.703Z,2.60
2019-03-12T17:20:15.940Z,2.05
2019-03-12T17:22:44.771Z,2.33
2019-03-12T17:25:13.086Z,22.22
2019-03-12T17:27:41.616Z,5.75
2019-03-12T17:30:12.201Z,2.20
2019-03-12T17:32:40.693Z,2.30
2019-03-12T17:35:09.948Z,2.10
2019-03-12T17:37:38.168Z,2.25
2019-03-12T17:40:07.722Z,2.70
2019-03-12T17:42:35.786Z,2.10
2019-03-12T17:45:04.039Z,2.20
2019-03-12T17:47:32.115Z,2.43
2019-03-12T17:50:00.171Z,2.03
2019-03-12T17:52:29.419Z,2.55
2019-03-12T17:54:57.549Z,2.22
2019-03-12T17:57:26.592Z,2.42
2019-03-12T17:59:55.215Z,2.37
2019-03-12T18:02:23.345Z,2.17
2019-03-12T18:04:51.452Z,2.60
2019-03-12T18:07:19.854Z,5.23
2019-03-12T18:09:48.429Z,2.00
2019-03-12T18:12:16.479Z,2.25
2019-03-12T18:14:44.572Z,2.33
2019-03-12T18:17:13.012Z,2.30
2019-03-12T18:19:41.394Z,2.02
2019-03-12T18:22:09.923Z,2.20
2019-03-12T18:24:40.370Z,2.10
2019-03-12T18:27:08.619Z,2.50
2019-03-12T18:29:36.805Z,2.58
2019-03-12T18:32:05.091Z,2.33
2019-03-12T18:34:33.297Z,2.10
2019-03-12T18:37:01.445Z,2.10
2019-03-12T18:39:31.256Z,2.47
2019-03-12T18:41:59.777Z,2.20
2019-03-12T18:44:27.993Z,2.20
2019-03-12T18:46:56.486Z,2.42
2019-03-12T18:49:24.902Z,2.20
2019-03-12T18:51:52.964Z,2.47
2019-03-12T18:54:21.096Z,2.22
2019-03-12T18:56:49.652Z,2.45
2019-03-12T18:59:19.726Z,2.43
2019-03-12T19:01:47.879Z,6.50
2019-03-12T19:04:15.996Z,2.17
2019-03-12T19:06:45.354Z,2.20
2019-03-12T19:09:13.388Z,2.10
2019-03-12T19:11:42.508Z,2.00
2019-03-12T19:14:11.059Z,2.33
2019-03-12T19:16:39.756Z,2.40
2019-03-12T19:19:07.834Z,2.10
2019-03-12T19:21:36.247Z,2.10
2019-03-12T19:24:04.306Z,2.27
2019-03-12T19:26:32.393Z,2.20
2019-03-12T19:29:00.411Z,2.27
2019-03-12T19:31:46.516Z,2.15
2019-03-12T19:34:19.011Z,2.10
2019-03-12T19:36:47.575Z,2.00
2019-03-12T19:39:17.807Z,2.00
2019-03-12T19:41:46.186Z,2.10
2019-03-12T19:44:14.286Z,2.22
2019-03-12T19:46:42.320Z,2.20
2019-03-12T19:49:10.698Z,1.90
2019-03-12T19:51:38.985Z,2.12
2019-03-12T19:54:07.042Z,5.53
2019-03-12T19:56:35.225Z,2.00
2019-03-12T19:59:03.294Z,2.25
2019-03-12T20:01:33.106Z,2.10
2019-03-12T20:04:03.129Z,1.98
2019-03-12T20:06:31.384Z,1.98
2019-03-12T20:08:59.601Z,2.10
2019-03-12T20:11:45.950Z,2.00
2019-03-12T20:14:39.848Z,2.22
2019-03-12T20:17:26.901Z,2.53
2019-03-12T20:20:12.715Z,2.00
2019-03-12T20:22:58.580Z,2.00
2019-03-12T20:25:59.967Z,2.15
2019-03-12T20:28:56.187Z,2.10
2019-03-12T20:31:42.299Z,2.30
2019-03-12T20:34:29.406Z,2.10
2019-03-12T20:37:15.992Z,2.07
2019-03-12T20:40:12.633Z,1.80
2019-03-12T20:42:58.617Z,2.00
2019-03-12T20:45:40.704Z,2.10
2019-03-12T20:48:32.873Z,2.00
2019-03-12T20:51:35.457Z,2.20
2019-03-12T20:54:21.397Z,2.00
2019-03-12T20:57:22.180Z,1.80
2019-03-12T21:00:12.457Z,2.00
2019-03-12T21:02:49.271Z,2.00
2019-03-12T21:05:36.737Z,2.10
2019-03-12T21:08:32.045Z,1.90
2019-03-12T21:11:37.675Z,1.90
2019-03-12T21:14:21.641Z,1.82
2019-03-12T21:16:59.182Z,2.05
2019-03-12T21:19:58.743Z,1.90
2019-03-12T21:22:40.889Z,1.50
2019-03-12T21:25:31.372Z,1.62
2019-03-12T21:28:30.866Z,1.70
2019-03-12T21:30:59.237Z,1.50
2019-03-12T21:33:27.287Z,1.60
2019-03-12T21:35:55.522Z,1.60
2019-03-12T21:38:23.857Z,1.60
2019-03-12T21:40:52.248Z,1.30
2019-03-12T21:43:20.661Z,1.80
2019-03-12T21:45:48.881Z,1.72
2019-03-12T21:48:16.940Z,1.62
2019-03-12T21:50:44.998Z,1.85
2019-03-12T21:53:13.420Z,1.60
2019-03-12T21:55:41.804Z,1.60
2019-03-12T21:58:10.088Z,1.50
2019-03-12T22:00:38.396Z,1.52
2019-03-12T22:03:06.507Z,1.50
2019-03-12T22:05:35.003Z,1.80
2019-03-12T22:08:03.328Z,1.70
2019-03-12T22:10:31.487Z,1.60
2019-03-12T22:12:59.948Z,1.52
2019-03-12T22:15:29.680Z,1.70
2019-03-12T22:17:58.447Z,1.50
2019-03-12T22:20:26.481Z,1.65
2019-03-12T22:23:00.340Z,2.00
2019-03-12T22:25:28.403Z,1.62
2019-03-12T22:27:56.455Z,1.50
2019-03-12T22:30:25.517Z,2.03
2019-03-12T22:32:53.567Z,1.50
2019-03-12T22:35:22.240Z,1.70
2019-03-12T22:37:50.671Z,1.65
2019-03-12T22:40:18.737Z,1.60
2019-03-12T22:42:46.846Z,1.57
2019-03-12T22:45:15.030Z,1.60
2019-03-12T22:47:43.092Z,1.50
2019-03-12T22:50:11.283Z,2.02
2019-03-12T22:52:39.646Z,1.75
2019-03-12T22:55:07.895Z,1.70
2019-03-12T22:57:36.027Z,1.50
2019-03-12T23:00:04.868Z,1.90
2019-03-12T23:02:33.345Z,1.65
2019-03-12T23:05:01.745Z,1.70
2019-03-12T23:07:30.355Z,1.55
2019-03-12T23:09:59.018Z,1.77
2019-03-12T23:12:27.028Z,1.70
2019-03-12T23:14:55.767Z,1.65
2019-03-12T23:17:24.874Z,1.45
2019-03-12T23:19:52.884Z,1.80
2019-03-12T23:22:20.954Z,1.70
2019-03-12T23:24:49.045Z,2.10
2019-03-12T23:27:17.719Z,1.60
2019-03-12T23:29:45.767Z,1.60
2019-03-12T23:32:15.428Z,1.80
2019-03-12T23:34:43.436Z,1.70
2019-03-12T23:37:11.460Z,1.70
2019-03-12T23:39:39.508Z,1.60
2019-03-12T23:42:07.653Z,1.60
2019-03-12T23:44:36.336Z,1.70
2019-03-12T23:47:04.353Z,1.90
2019-03-12T23:49:32.717Z,1.90
2019-03-12T23:52:01.112Z,1.50
2019-03-12T23:54:29.819Z,1.40
2019-03-12T23:56:57.889Z,1.60
2019-03-12T23:59:25.943Z,1.50
